Time;durP1;ratioP1;P1;durP2;ratioP2;P2;SDS_P1;SDS_P2;PMS_P1;PMS_P2;Temp;Humidity;BMP_temperature;BMP_pressure;BME280_temperature;BME280_humidity;BME280_pressure;Samples;Min_cycle;Max_cycle;Signal;HPM_P1;HPM_P2
2024/03/23 00:00:59;;;;;;;2.17;0.60;;;;;;;;;;5118806;27;20046;-74
2024/03/23 00:03:28;;;;;;;5.07;0.55;;;;;;;;;;5119318;27;20413;-73
2024/03/23 00:05:58;;;;;;;0.63;0.30;;;;;;;;;;5119798;27;20046;-71
2024/03/23 00:08:27;;;;;;;3.50;0.55;;;;;;;;;;5120344;27;20039;-72
2024/03/23 00:10:57;;;;;;;7.43;0.60;;;;;;;;;;5119634;27;20043;-74
2024/03/23 00:13:26;;;;;;;9.18;0.93;;;;;;;;;;5118803;27;20638;-72
2024/03/23 00:15:55;;;;;;;;;;;;;;;;;;5120188;27;20050;-73
2024/03/23 00:18:25;;;;;;;;;;;;;;;;;;5119819;27;19934;-73
2024/03/23 00:20:57;;;;;;;4.22;0.60;;;;;;;;;;5119606;27;19923;-72
2024/03/23 00:23:26;;;;;;;7.10;0.80;;;;;;;;;;5119015;27;20035;-74
2024/03/23 00:25:56;;;;;;;6.75;0.63;;;;;;;;;;5101813;27;20066;-72
2024/03/23 00:28:25;;;;;;;6.47;0.90;;;;;;;;;;5119362;27;20043;-73
2024/03/23 00:30:54;;;;;;;6.38;1.02;;;;;;;;;;5119102;27;20808;-71
2024/03/23 00:33:23;;;;;;;;;;;;;;;;;;5119863;27;20042;-72
2024/03/23 00:35:52;;;;;;;6.18;1.08;;;;;;;;;;5100982;27;20302;-72
2024/03/23 00:38:24;;;;;;;4.65;0.75;;;;;;;;;;5118374;27;20050;-72
2024/03/23 00:40:54;;;;;;;7.55;0.73;;;;;;;;;;5102913;27;20645;-72
2024/03/23 00:43:23;;;;;;;2.55;0.55;;;;;;;;;;5101950;28;20047;-73
2024/03/23 00:45:56;;;;;;;5.93;0.80;;;;;;;;;;5116833;27;20039;-72
2024/03/23 00:48:26;;;;;;;5.45;1.08;;;;;;;;;;5116129;27;20047;-72
2024/03/23 00:50:55;;;;;;;2.85;0.63;;;;;;;;;;5115894;27;20047;-72
2024/03/23 00:53:25;;;;;;;6.07;0.80;;;;;;;;;;5116806;27;20039;-72
2024/03/23 00:55:54;;;;;;;4.60;0.73;;;;;;;;;;5116445;28;20058;-72
2024/03/23 00:58:22;;;;;;;8.75;1.08;;;;;;;;;;5116844;28;20043;-73
2024/03/23 01:00:50;;;;;;;2.75;0.70;;;;;;;;;;5116865;28;20066;-72
2024/03/23 01:03:19;;;;;;;5.40;0.80;;;;;;;;;;5118111;28;20505;-72
2024/03/23 01:05:48;;;;;;;1.58;0.38;;;;;;;;;;5119173;28;20047;-72
2024/03/23 01:08:17;;;;;;;2.42;0.68;;;;;;;;;;5118942;27;20039;-72
2024/03/23 01:10:57;;;;;;;5.15;0.73;;;;;;;;;;5119119;27;20409;-72
2024/03/23 01:13:27;;;;;;;4.28;0.93;;;;;;;;;;5122519;27;20505;-72
2024/03/23 01:15:57;;;;;;;3.10;0.60;;;;;;;;;;5122583;27;20039;-72
2024/03/23 01:18:29;;;;;;;4.45;0.55;;;;;;;;;;5122573;27;20058;-72
2024/03/23 01:20:57;;;;;;;6.70;1.40;;;;;;;;;;5122663;27;20047;-72
2024/03/23 01:23:25;;;;;;;4.75;0.65;;;;;;;;;;5122102;27;20047;-72
2024/03/23 01:25:55;;;;;;;9.02;0.70;;;;;;;;;;5122901;27;20501;-72
2024/03/23 01:28:24;;;;;;;4.57;0.60;;;;;;;;;;5105359;27;20437;-72
2024/03/23 01:30:52;;;;;;;5.55;0.80;;;;;;;;;;5122274;27;20054;-72
2024/03/23 01:33:20;;;;;;;3.20;0.43;;;;;;;;;;5122413;27;20043;-72
2024/03/23 01:35:49;;;;;;;4.68;0.80;;;;;;;;;;5122330;27;20440;-72
2024/03/23 01:38:17;;;;;;;4.53;0.55;;;;;;;;;;5122513;27;20042;-72
2024/03/23 01:40:46;;;;;;;5.20;0.52;;;;;;;;;;5122048;27;20047;-72
2024/03/23 01:43:14;;;;;;;6.72;0.60;;;;;;;;;;5122582;27;20043;-72
2024/03/23 01:45:43;;;;;;;3.70;0.80;;;;;;;;;;5122267;27;20054;-72
2024/03/23 01:48:13;;;;;;;12.10;1.23;;;;;;;;;;5121849;27;20058;-72
2024/03/23 01:50:42;;;;;;;5.55;0.80;;;;;;;;;;5122261;27;20038;-72
2024/03/23 01:53:10;;;;;;;7.50;0.90;;;;;;;;;;5121996;27;20054;-72
2024/03/23 01:55:39;;;;;;;1.77;0.50;;;;;;;;;;5121932;27;20046;-75
2024/03/23 01:58:08;;;;;;;6.53;0.73;;;;;;;;;;5104630;27;20051;-72
2024/03/23 02:00:37;;;;;;;11.38;0.75;;;;;;;;;;5121665;27;20043;-73
2024/03/23 02:03:24;;;;;;;4.68;0.70;;;;;;;;;;5120636;27;20063;-72
2024/03/23 02:05:57;;;;;;;4.35;0.70;;;;;;;;;;5104754;27;20039;-72
2024/03/23 02:08:26;;;;;;;4.60;0.40;;;;;;;;;;5122298;27;20065;-72
2024/03/23 02:10:54;;;;;;;5.18;0.60;;;;;;;;;;5121255;27;20516;-72
2024/03/23 02:13:22;;;;;;;2.28;0.55;;;;;;;;;;5121225;27;20051;-74
2024/03/23 02:15:50;;;;;;;5.18;0.63;;;;;;;;;;5121410;27;20421;-72
2024/03/23 02:18:20;;;;;;;3.60;0.65;;;;;;;;;;5104095;27;20047;-72
2024/03/23 02:20:48;;;;;;;6.70;0.63;;;;;;;;;;5121647;27;20563;-71
2024/03/23 02:23:20;;;;;;;4.90;0.98;;;;;;;;;;5120672;27;20042;-72
2024/03/23 02:25:48;;;;;;;5.70;0.68;;;;;;;;;;5121765;27;20043;-72
2024/03/23 02:28:17;;;;;;;8.90;0.55;;;;;;;;;;5121298;27;20529;-72
2024/03/23 02:30:46;;;;;;;6.30;1.02;;;;;;;;;;5121433;27;20594;-72
2024/03/23 02:33:15;;;;;;;6.43;0.82;;;;;;;;;;5121011;27;20047;-72
2024/03/23 02:35:47;;;;;;;11.20;0.90;;;;;;;;;;5120942;27;20054;-73
2024/03/23 02:38:15;;;;;;;3.80;0.68;;;;;;;;;;5121025;27;20055;-72
2024/03/23 02:40:44;;;;;;;4.93;0.65;;;;;;;;;;5121230;27;20058;-72
2024/03/23 02:43:12;;;;;;;5.20;0.70;;;;;;;;;;5120858;27;20047;-72
2024/03/23 02:45:42;;;;;;;7.18;0.73;;;;;;;;;;5104037;27;20054;-72
2024/03/23 02:48:10;;;;;;;4.53;0.70;;;;;;;;;;5104251;27;20504;-72
2024/03/23 02:50:38;;;;;;;4.57;0.60;;;;;;;;;;5103833;27;20600;-72
2024/03/23 02:53:07;;;;;;;3.70;0.88;;;;;;;;;;5103356;27;20047;-72
2024/03/23 02:55:36;;;;;;;3.67;0.60;;;;;;;;;;5120760;27;20046;-72
2024/03/23 02:58:04;;;;;;;;;;;;;;;;;;5121482;27;20058;-72
2024/03/23 03:00:33;;;;;;;;;;;;;;;;;;5103604;27;20361;-72
2024/03/23 03:03:03;;;;;;;3.35;0.77;;;;;;;;;;5120800;27;19923;-72
2024/03/23 03:05:31;;;;;;;6.15;0.77;;;;;;;;;;5121343;27;20051;-72
2024/03/23 03:07:59;;;;;;;3.15;0.52;;;;;;;;;;5103867;27;20092;-75
2024/03/23 03:10:27;;;;;;;6.25;0.65;;;;;;;;;;5120319;27;20047;-72
2024/03/23 03:12:56;;;;;;;4.22;0.63;;;;;;;;;;5121301;27;20043;-72
2024/03/23 03:15:25;;;;;;;7.85;1.00;;;;;;;;;;5120289;27;20426;-74
2024/03/23 03:17:53;;;;;;;8.68;0.93;;;;;;;;;;5103346;27;20593;-72
2024/03/23 03:20:23;;;;;;;4.18;0.77;;;;;;;;;;5120043;27;20043;-72
2024/03/23 03:22:53;;;;;;;3.95;1.17;;;;;;;;;;5120028;27;20050;-72
2024/03/23 03:25:21;;;;;;;7.28;0.90;;;;;;;;;;5102946;27;20045;-72
2024/03/23 03:27:50;;;;;;;7.10;1.02;;;;;;;;;;5119845;27;20043;-72
2024/03/23 03:30:18;;;;;;;4.90;0.65;;;;;;;;;;5120185;27;20039;-72
2024/03/23 03:32:47;;;;;;;4.05;0.65;;;;;;;;;;5119611;27;20040;-72
2024/03/23 03:35:15;;;;;;;3.50;0.50;;;;;;;;;;5119694;27;20050;-72
2024/03/23 03:37:44;;;;;;;5.10;0.73;;;;;;;;;;5120027;27;20523;-73
2024/03/23 03:40:14;;;;;;;7.03;0.80;;;;;;;;;;5120501;27;20676;-72
2024/03/23 03:42:43;;;;;;;3.30;0.40;;;;;;;;;;5120120;27;20044;-72
2024/03/23 03:45:11;;;;;;;4.60;0.60;;;;;;;;;;5120066;27;20043;-72
2024/03/23 03:47:40;;;;;;;5.60;0.63;;;;;;;;;;5119604;27;20046;-72
2024/03/23 03:50:09;;;;;;;8.10;0.77;;;;;;;;;;5119657;27;20050;-72
2024/03/23 03:52:37;;;;;;;7.78;0.60;;;;;;;;;;5120033;27;20524;-72
2024/03/23 03:55:13;;;;;;;4.03;0.77;;;;;;;;;;5120026;27;20043;-73
2024/03/23 03:57:42;;;;;;;2.63;0.45;;;;;;;;;;5119780;27;20039;-72
2024/03/23 04:00:11;;;;;;;3.80;0.60;;;;;;;;;;5120096;27;20047;-72
2024/03/23 04:02:40;;;;;;;6.28;0.55;;;;;;;;;;5103040;27;20058;-72
2024/03/23 04:05:08;;;;;;;5.28;0.80;;;;;;;;;;5119466;27;20058;-73
2024/03/23 04:07:37;;;;;;;4.00;0.60;;;;;;;;;;5119689;27;20054;-73
2024/03/23 04:10:07;;;;;;;2.53;0.45;;;;;;;;;;5102370;27;20058;-73
2024/03/23 04:12:36;;;;;;;3.50;0.50;;;;;;;;;;5102517;27;20739;-72
2024/03/23 04:15:04;;;;;;;4.45;0.43;;;;;;;;;;5119273;27;20600;-73
2024/03/23 04:17:34;;;;;;;1.58;0.32;;;;;;;;;;5118833;27;20050;-72
2024/03/23 04:20:04;;;;;;;5.65;0.57;;;;;;;;;;5119273;27;20043;-72
2024/03/23 04:22:33;;;;;;;2.92;0.50;;;;;;;;;;5119450;27;20521;-73
2024/03/23 04:25:06;;;;;;;1.35;0.50;;;;;;;;;;5119364;27;20425;-73
2024/03/23 04:27:35;;;;;;;4.03;0.45;;;;;;;;;;5118880;27;20051;-72
2024/03/23 04:30:09;;;;;;;5.47;0.55;;;;;;;;;;5118997;27;20047;-73
2024/03/23 04:32:39;;;;;;;6.30;0.50;;;;;;;;;;5119523;27;20039;-72
2024/03/23 04:35:09;;;;;;;3.72;0.50;;;;;;;;;;5102413;27;20039;-73
2024/03/23 04:37:41;;;;;;;11.18;0.93;;;;;;;;;;5119185;27;20046;-72
2024/03/23 04:40:11;;;;;;;2.40;0.32;;;;;;;;;;5118936;27;20556;-72
2024/03/23 04:42:39;;;;;;;3.33;0.52;;;;;;;;;;5119691;27;20410;-72
2024/03/23 04:45:08;;;;;;;3.50;0.52;;;;;;;;;;5118931;27;20540;-72
2024/03/23 05:02:53;;;;;;;4.20;0.45;;;;;;;;;;5111469;28;20682;-73
2024/03/23 05:05:21;;;;;;;3.78;0.43;;;;;;;;;;5119434;27;20044;-72
2024/03/23 05:07:49;;;;;;;4.45;0.40;;;;;;;;;;5119008;28;20433;-72
2024/03/23 05:10:18;;;;;;;6.50;0.68;;;;;;;;;;5118608;28;20054;-73
2024/03/23 05:12:46;;;;;;;2.30;0.50;;;;;;;;;;5118340;28;20047;-72
2024/03/23 05:15:15;;;;;;;3.78;0.50;;;;;;;;;;5118441;28;20047;-72
2024/03/23 05:17:43;;;;;;;1.88;0.22;;;;;;;;;;5118460;28;20043;-72
2024/03/23 05:20:12;;;;;;;4.65;0.70;;;;;;;;;;5118356;28;20619;-74
2024/03/23 05:22:40;;;;;;;4.88;0.57;;;;;;;;;;5118183;27;20051;-73
2024/03/23 05:25:10;;;;;;;6.38;0.55;;;;;;;;;;5119150;28;20042;-72
2024/03/23 05:27:38;;;;;;;4.32;0.55;;;;;;;;;;5118524;27;20046;-73
2024/03/23 05:30:09;;;;;;;3.67;0.38;;;;;;;;;;5101146;28;20407;-73
2024/03/23 05:32:40;;;;;;;4.38;0.43;;;;;;;;;;5118284;28;20532;-72
2024/03/23 05:35:09;;;;;;;2.08;0.50;;;;;;;;;;5118596;28;20054;-72
2024/03/23 05:37:37;;;;;;;2.65;0.65;;;;;;;;;;5118639;28;20066;-72
2024/03/23 05:40:08;;;;;;;2.83;0.45;;;;;;;;;;5118093;27;20607;-73
2024/03/23 05:42:38;;;;;;;6.10;0.43;;;;;;;;;;5119191;27;20046;-72
2024/03/23 05:45:06;;;;;;;;;;;;;;;;;;5118637;27;20536;-72
2024/03/23 05:47:35;;;;;;;4.20;0.95;;;;;;;;;;5118168;28;19923;-73
2024/03/23 05:50:03;;;;;;;4.55;0.50;;;;;;;;;;5117850;27;20043;-73
2024/03/23 05:52:32;;;;;;;6.78;0.77;;;;;;;;;;5118131;28;20040;-72
2024/03/23 05:55:01;;;;;;;1.95;0.57;;;;;;;;;;5118359;28;20043;-73
2024/03/23 05:57:30;;;;;;;2.92;0.70;;;;;;;;;;5118058;27;20043;-72
2024/03/23 05:59:58;;;;;;;5.03;0.50;;;;;;;;;;5121407;27;20047;-73
2024/03/23 06:02:27;;;;;;;6.85;0.45;;;;;;;;;;5121580;27;20439;-73
2024/03/23 06:04:55;;;;;;;4.63;0.65;;;;;;;;;;5121925;27;20054;-72
2024/03/23 06:07:24;;;;;;;2.28;0.50;;;;;;;;;;5121644;27;20054;-72
2024/03/23 06:09:54;;;;;;;3.45;0.50;;;;;;;;;;5121185;27;20039;-73
2024/03/23 06:12:22;;;;;;;5.57;0.65;;;;;;;;;;5121647;27;20051;-73
2024/03/23 06:14:50;;;;;;;3.40;0.43;;;;;;;;;;5121205;27;20039;-72
2024/03/23 06:17:19;;;;;;;5.28;0.57;;;;;;;;;;5121231;27;20043;-73
2024/03/23 06:19:49;;;;;;;5.28;0.68;;;;;;;;;;5121788;27;20606;-73
2024/03/23 06:22:18;;;;;;;3.10;0.57;;;;;;;;;;5121589;27;20387;-73
2024/03/23 06:24:46;;;;;;;1.77;0.45;;;;;;;;;;5121511;27;20516;-73
2024/03/23 06:27:14;;;;;;;6.35;0.75;;;;;;;;;;5121292;27;20050;-73
2024/03/23 06:29:42;;;;;;;7.65;0.52;;;;;;;;;;5121668;27;20047;-73
2024/03/23 06:32:11;;;;;;;5.30;1.10;;;;;;;;;;5120801;27;20043;-73
2024/03/23 06:34:42;;;;;;;2.15;0.40;;;;;;;;;;5121245;27;20433;-73
2024/03/23 06:37:11;;;;;;;3.58;0.68;;;;;;;;;;5120965;27;20039;-72
2024/03/23 06:39:39;;;;;;;0.65;0.20;;;;;;;;;;5121012;27;20425;-73
2024/03/23 06:42:08;;;;;;;6.38;0.50;;;;;;;;;;5121209;27;20683;-73
2024/03/23 06:44:36;;;;;;;2.97;0.40;;;;;;;;;;5121044;27;20413;-73
2024/03/23 06:47:05;;;;;;;2.72;0.65;;;;;;;;;;5120811;27;20398;-72
2024/03/23 06:49:34;;;;;;;1.80;0.32;;;;;;;;;;5120550;27;20043;-73
2024/03/23 06:52:03;;;;;;;0.88;0.28;;;;;;;;;;5121016;27;20090;-73
2024/03/23 06:54:31;;;;;;;4.53;0.60;;;;;;;;;;5120408;27;20035;-73
2024/03/23 06:56:59;;;;;;;6.75;0.40;;;;;;;;;;5120879;27;20035;-73
2024/03/23 06:59:27;;;;;;;4.72;0.60;;;;;;;;;;5120669;27;20043;-73
2024/03/23 07:01:56;;;;;;;2.42;0.40;;;;;;;;;;5120016;27;20565;-73
2024/03/23 07:04:25;;;;;;;1.23;0.50;;;;;;;;;;5120718;27;20043;-73
2024/03/23 07:06:53;;;;;;;3.88;0.60;;;;;;;;;;5120647;27;20661;-73
2024/03/23 07:09:25;;;;;;;3.38;0.57;;;;;;;;;;5120676;27;20035;-73
2024/03/23 07:11:55;;;;;;;5.70;0.70;;;;;;;;;;5120752;27;20054;-73
2024/03/23 07:14:24;;;;;;;3.35;0.43;;;;;;;;;;5120438;27;20050;-73
2024/03/23 07:16:52;;;;;;;3.90;0.40;;;;;;;;;;5120343;27;20043;-73
2024/03/23 07:19:21;;;;;;;3.55;0.98;;;;;;;;;;5120567;27;20493;-73
2024/03/23 07:21:50;;;;;;;2.08;0.47;;;;;;;;;;5120466;27;20420;-73
2024/03/23 07:24:18;;;;;;;4.68;1.20;;;;;;;;;;5120198;27;20615;-73
2024/03/23 07:26:47;;;;;;;2.10;0.50;;;;;;;;;;5120181;27;20478;-73
2024/03/23 07:29:16;;;;;;;3.10;0.60;;;;;;;;;;5119805;27;20055;-73
2024/03/23 07:31:45;;;;;;;2.58;1.15;;;;;;;;;;5120222;27;20047;-73
2024/03/23 07:34:13;;;;;;;4.68;0.63;;;;;;;;;;5119817;27;20051;-73
2024/03/23 07:36:42;;;;;;;4.55;0.50;;;;;;;;;;5120469;27;20035;-72
2024/03/23 07:39:10;;;;;;;7.35;0.70;;;;;;;;;;5119724;27;20667;-73
2024/03/23 07:41:39;;;;;;;7.63;0.73;;;;;;;;;;5120264;27;20047;-72
2024/03/23 07:44:07;;;;;;;5.20;0.38;;;;;;;;;;5119892;27;20047;-72
2024/03/23 07:46:35;;;;;;;6.45;0.85;;;;;;;;;;5119955;27;20062;-72
2024/03/23 07:49:05;;;;;;;10.57;0.75;;;;;;;;;;5120211;27;20046;-72
2024/03/23 07:51:34;;;;;;;4.82;0.52;;;;;;;;;;5119533;27;20513;-72
2024/03/23 07:54:02;;;;;;;4.22;0.50;;;;;;;;;;5119494;27;20047;-72
2024/03/23 07:56:32;;;;;;;1.77;0.80;;;;;;;;;;5119800;27;20046;-72
2024/03/23 07:59:00;;;;;;;3.83;0.60;;;;;;;;;;5119682;27;20054;-72
2024/03/23 08:01:29;;;;;;;5.35;0.80;;;;;;;;;;5118794;27;20051;-72
2024/03/23 08:03:57;;;;;;;8.50;0.60;;;;;;;;;;5119449;27;20043;-72
2024/03/23 08:06:26;;;;;;;4.00;0.47;;;;;;;;;;5119294;27;20036;-72
2024/03/23 08:09:01;;;;;;;2.53;0.50;;;;;;;;;;5119136;27;20035;-72
2024/03/23 08:11:31;;;;;;;5.88;1.00;;;;;;;;;;5119114;27;20046;-72
2024/03/23 08:14:01;;;;;;;2.97;0.68;;;;;;;;;;5119401;27;20440;-72
2024/03/23 08:16:30;;;;;;;3.95;0.50;;;;;;;;;;5119258;27;20505;-72
2024/03/23 08:18:58;;;;;;;1.80;0.60;;;;;;;;;;5118945;27;20394;-72
2024/03/23 08:21:27;;;;;;;3.08;0.70;;;;;;;;;;5118839;27;20043;-72
2024/03/23 08:23:56;;;;;;;6.13;0.52;;;;;;;;;;5119405;27;20073;-72
2024/03/23 08:26:24;;;;;;;4.78;0.52;;;;;;;;;;5118946;27;20051;-72
2024/03/23 08:28:53;;;;;;;3.42;0.73;;;;;;;;;;5119382;27;20069;-72
2024/03/23 08:31:21;;;;;;;6.30;0.93;;;;;;;;;;5119123;27;20494;-72
2024/03/23 08:33:49;;;;;;;3.97;0.50;;;;;;;;;;5119172;27;20035;-72
2024/03/23 08:36:19;;;;;;;6.68;1.02;;;;;;;;;;5119224;27;20046;-72
2024/03/23 08:38:50;;;;;;;5.97;0.80;;;;;;;;;;5118032;27;20051;-72
2024/03/23 08:41:19;;;;;;;3.75;0.73;;;;;;;;;;5119419;27;20043;-72
2024/03/23 08:43:47;;;;;;;1.55;0.40;;;;;;;;;;5119220;27;20413;-72
2024/03/23 08:46:17;;;;;;;3.35;0.60;;;;;;;;;;5119107;27;20050;-72
2024/03/23 08:48:48;;;;;;;2.55;0.45;;;;;;;;;;5118771;27;20058;-72
2024/03/23 08:51:17;;;;;;;7.35;0.77;;;;;;;;;;5118567;27;20425;-72
2024/03/23 08:53:48;;;;;;;10.63;1.30;;;;;;;;;;5118718;27;20199;-72
2024/03/23 08:56:17;;;;;;;5.47;0.65;;;;;;;;;;5118168;28;20039;-72
2024/03/23 08:58:45;;;;;;;2.85;0.57;;;;;;;;;;5118941;27;20055;-72
2024/03/23 09:01:14;;;;;;;1.80;0.40;;;;;;;;;;5119039;28;20054;-72
2024/03/23 09:03:43;;;;;;;4.05;0.40;;;;;;;;;;5118993;28;20536;-72
2024/03/23 09:06:13;;;;;;;;;;;;;;;;;;5119436;28;20102;-72
2024/03/23 09:08:41;;;;;;;2.10;0.65;;;;;;;;;;5118771;28;19923;-72
2024/03/23 09:11:12;;;;;;;2.65;0.60;;;;;;;;;;5118685;28;20039;-72
2024/03/23 09:13:43;;;;;;;3.58;1.42;;;;;;;;;;5117097;28;20054;-72
2024/03/23 09:16:13;;;;;;;4.57;0.82;;;;;;;;;;5118545;28;20032;-72
2024/03/23 09:18:42;;;;;;;2.15;0.70;;;;;;;;;;5101951;28;20054;-72
2024/03/23 09:21:14;;;;;;;3.60;0.60;;;;;;;;;;5118569;28;20493;-73
2024/03/23 09:23:46;;;;;;;3.60;0.73;;;;;;;;;;5118365;28;20043;-72
2024/03/23 09:26:15;;;;;;;2.90;0.50;;;;;;;;;;5117541;27;20870;-72
2024/03/23 09:28:44;;;;;;;7.28;0.40;;;;;;;;;;5118382;28;20050;-72
2024/03/23 09:31:15;;;;;;;3.40;0.43;;;;;;;;;;5118890;27;20043;-72
2024/03/23 09:33:43;;;;;;;4.93;0.52;;;;;;;;;;5120917;27;20501;-72
2024/03/23 09:36:11;;;;;;;2.78;0.60;;;;;;;;;;5122294;27;20516;-72
2024/03/23 09:38:41;;;;;;;2.65;0.40;;;;;;;;;;5122282;27;20039;-72
2024/03/23 09:41:11;;;;;;;4.70;0.50;;;;;;;;;;5122456;27;20047;-72
2024/03/23 09:43:40;;;;;;;2.80;0.55;;;;;;;;;;5122558;27;20058;-72
2024/03/23 09:46:09;;;;;;;3.60;0.73;;;;;;;;;;5121674;27;20043;-72
2024/03/23 09:48:37;;;;;;;3.53;0.68;;;;;;;;;;5121874;27;20043;-72
2024/03/23 09:51:08;;;;;;;1.90;0.63;;;;;;;;;;5122186;27;20646;-72
2024/03/23 09:53:38;;;;;;;4.30;0.55;;;;;;;;;;5104254;27;20059;-72
2024/03/23 09:56:08;;;;;;;1.58;0.57;;;;;;;;;;5122266;27;20050;-73
2024/03/23 09:58:38;;;;;;;1.92;0.50;;;;;;;;;;5122191;27;20047;-72
2024/03/23 10:01:08;;;;;;;5.47;0.50;;;;;;;;;;5121937;27;20047;-72
2024/03/23 10:03:46;;;;;;;5.40;0.63;;;;;;;;;;5122112;27;20047;-72
2024/03/23 10:06:14;;;;;;;8.27;0.75;;;;;;;;;;5122693;27;20046;-72
2024/03/23 10:08:42;;;;;;;12.35;0.90;;;;;;;;;;5122466;27;20490;-72
2024/03/23 10:11:16;;;;;;;1.88;0.52;;;;;;;;;;5121592;27;20533;-72
2024/03/23 10:13:48;;;;;;;7.97;1.08;;;;;;;;;;5121680;27;20042;-72
2024/03/23 10:16:24;;;;;;;7.38;0.95;;;;;;;;;;5121949;27;20528;-72
2024/03/23 10:18:52;;;;;;;4.47;0.70;;;;;;;;;;5121395;27;20724;-73
2024/03/23 10:21:20;;;;;;;2.92;1.08;;;;;;;;;;5121225;27;20054;-72
2024/03/23 10:23:51;;;;;;;9.05;1.08;;;;;;;;;;5121161;27;20513;-72
2024/03/23 10:26:28;;;;;;;8.20;1.00;;;;;;;;;;5121364;27;20047;-72
2024/03/23 10:29:03;;;;;;;5.53;1.00;;;;;;;;;;5121472;27;20042;-71
2024/03/23 10:31:32;;;;;;;6.85;2.10;;;;;;;;;;5121275;27;20046;-73
2024/03/23 10:34:00;;;;;;;9.13;1.00;;;;;;;;;;5121133;27;20058;-72
2024/03/23 10:36:31;;;;;;;4.82;0.80;;;;;;;;;;5121513;27;20062;-72
2024/03/23 10:39:00;;;;;;;10.57;1.50;;;;;;;;;;5120091;27;20043;-73
2024/03/23 10:41:32;;;;;;;5.82;0.80;;;;;;;;;;5120420;27;20047;-72
2024/03/23 10:44:02;;;;;;;4.30;1.70;;;;;;;;;;5120554;27;20405;-72
2024/03/23 10:46:31;;;;;;;5.88;1.05;;;;;;;;;;5120792;27;20054;-72
2024/03/23 10:49:00;;;;;;;5.85;0.80;;;;;;;;;;5121638;27;21182;-72
2024/03/23 10:51:30;;;;;;;3.60;2.00;;;;;;;;;;5121023;27;20058;-72
2024/03/23 10:54:00;;;;;;;3.65;0.68;;;;;;;;;;5120491;27;20058;-73
2024/03/23 10:56:33;;;;;;;9.27;1.70;;;;;;;;;;5120785;27;20047;-72
2024/03/23 10:59:05;;;;;;;8.35;1.10;;;;;;;;;;5120927;27;20050;-73
2024/03/23 11:01:34;;;;;;;6.10;1.02;;;;;;;;;;5120221;27;20063;-72
2024/03/23 11:04:02;;;;;;;5.75;0.93;;;;;;;;;;5121289;27;20054;-72
2024/03/23 11:06:41;;;;;;;3.47;0.88;;;;;;;;;;5103584;27;20409;-72
2024/03/23 11:09:38;;;;;;;4.45;1.17;;;;;;;;;;5120484;27;20046;-72
2024/03/23 11:12:24;;;;;;;8.50;1.20;;;;;;;;;;5120663;27;20639;-74
2024/03/23 11:14:57;;;;;;;9.35;1.23;;;;;;;;;;5120188;27;20045;-72
2024/03/23 11:17:26;;;;;;;5.10;0.77;;;;;;;;;;5120755;27;20058;-73
2024/03/23 11:20:05;;;;;;;8.82;2.13;;;;;;;;;;5120703;27;20673;-72
2024/03/23 11:22:44;;;;;;;7.80;1.30;;;;;;;;;;5120278;27;20043;-76
2024/03/23 11:25:23;;;;;;;4.15;0.68;;;;;;;;;;5120366;27;20058;-73
2024/03/23 11:28:11;;;;;;;10.15;1.23;;;;;;;;;;5104364;27;20417;-75
2024/03/23 11:30:40;;;;;;;4.43;0.70;;;;;;;;;;5120399;27;20050;-72
2024/03/23 11:33:08;;;;;;;6.32;1.05;;;;;;;;;;5120820;27;20047;-71
2024/03/23 11:35:41;;;;;;;4.68;1.02;;;;;;;;;;5120364;27;20524;-72
2024/03/23 11:38:17;;;;;;;3.15;0.73;;;;;;;;;;5120203;27;20042;-74
2024/03/23 11:40:50;;;;;;;9.02;0.98;;;;;;;;;;5119653;27;20051;-72
2024/03/23 11:43:21;;;;;;;5.78;1.10;;;;;;;;;;5119958;27;20050;-72
2024/03/23 11:45:54;;;;;;;3.47;0.80;;;;;;;;;;5119871;27;20050;-72
2024/03/23 11:48:24;;;;;;;3.45;0.70;;;;;;;;;;5119397;27;20047;-72
2024/03/23 11:50:57;;;;;;;4.70;0.75;;;;;;;;;;5128559;27;20039;-87
2024/03/23 11:53:34;;;;;;;9.52;1.17;;;;;;;;;;5279573;22;20038;31
2024/03/23 11:56:03;;;;;;;4.97;1.02;;;;;;;;;;5047104;28;20044;-88
2024/03/23 11:58:32;;;;;;;15.13;1.42;;;;;;;;;;5030022;28;20916;-72
2024/03/23 12:01:03;;;;;;;4.80;0.57;;;;;;;;;;5039301;28;20401;-73
2024/03/23 12:03:34;;;;;;;6.78;0.98;;;;;;;;;;5022690;28;20053;-72
2024/03/23 12:06:05;;;;;;;6.32;0.70;;;;;;;;;;5038342;28;20061;-72
2024/03/23 12:08:36;;;;;;;2.60;0.60;;;;;;;;;;5022542;28;20128;-72
2024/03/23 12:11:14;;;;;;;6.13;0.95;;;;;;;;;;5038651;28;20049;-72
2024/03/23 12:13:45;;;;;;;6.05;1.73;;;;;;;;;;5039125;28;20045;-75
2024/03/23 12:16:19;;;;;;;3.70;0.73;;;;;;;;;;5039169;28;20047;-74
2024/03/23 12:18:53;;;;;;;7.82;0.93;;;;;;;;;;5039279;28;20049;-73
2024/03/23 12:21:22;;;;;;;2.67;0.73;;;;;;;;;;5038166;28;20037;-73
2024/03/23 12:23:51;;;;;;;7.93;1.25;;;;;;;;;;5039064;28;20041;-72
2024/03/23 12:26:22;;;;;;;2.17;0.70;;;;;;;;;;5038040;28;20515;-72
2024/03/23 12:28:54;;;;;;;7.15;1.38;;;;;;;;;;5038450;28;20061;-73
2024/03/23 12:31:24;;;;;;;18.27;3.50;;;;;;;;;;5038206;28;20041;-73
2024/03/23 12:33:52;;;;;;;15.20;5.25;;;;;;;;;;5038392;28;20098;-74
2024/03/23 12:36:21;;;;;;;19.42;7.13;;;;;;;;;;5038127;28;20049;-72
2024/03/23 12:38:49;;;;;;;6.07;1.60;;;;;;;;;;5037995;28;20415;-72
2024/03/23 12:41:17;;;;;;;9.35;1.70;;;;;;;;;;5037744;28;20499;-74
2024/03/23 12:43:46;;;;;;;6.38;1.00;;;;;;;;;;5038345;28;20060;-79
2024/03/23 12:46:15;;;;;;;6.18;1.02;;;;;;;;;;5037892;28;20037;-73
2024/03/23 12:48:45;;;;;;;8.68;0.93;;;;;;;;;;5037677;28;20052;-73
2024/03/23 12:51:14;;;;;;;4.13;0.88;;;;;;;;;;5021975;28;20810;-74
2024/03/23 12:53:42;;;;;;;2.35;0.50;;;;;;;;;;5021401;28;20068;-74
2024/03/23 12:56:14;;;;;;;3.10;0.55;;;;;;;;;;5038125;28;20553;-74
2024/03/23 12:58:43;;;;;;;2.72;0.52;;;;;;;;;;5022046;28;20049;-73
2024/03/23 13:01:12;;;;;;;4.25;0.70;;;;;;;;;;5038398;28;20496;-81
2024/03/23 13:03:41;;;;;;;3.00;0.85;;;;;;;;;;5037073;28;20084;-76
2024/03/23 13:06:09;;;;;;;4.47;0.70;;;;;;;;;;5037855;28;20049;-73
2024/03/23 13:08:38;;;;;;;6.45;0.82;;;;;;;;;;5040760;28;20040;-72
2024/03/23 13:11:08;;;;;;;4.10;0.88;;;;;;;;;;5041690;28;20053;-74
2024/03/23 13:13:37;;;;;;;8.52;0.80;;;;;;;;;;5041606;28;20041;-74
2024/03/23 13:16:06;;;;;;;5.55;0.68;;;;;;;;;;5025511;28;20053;-72
2024/03/23 13:18:35;;;;;;;6.30;0.90;;;;;;;;;;5041889;28;20049;-78
2024/03/23 13:21:04;;;;;;;4.05;0.77;;;;;;;;;;5041354;28;20580;-72
2024/03/23 13:23:35;;;;;;;11.75;1.23;;;;;;;;;;5041869;28;20053;-73
2024/03/23 13:26:04;;;;;;;2.63;0.65;;;;;;;;;;5041617;28;20523;-76
2024/03/23 13:28:32;;;;;;;2.65;0.60;;;;;;;;;;5025540;28;20103;-73
2024/03/23 13:31:05;;;;;;;2.25;0.60;;;;;;;;;;5025103;28;20064;-74
2024/03/23 13:33:33;;;;;;;3.67;0.65;;;;;;;;;;5041481;28;20041;-73
2024/03/23 13:36:03;;;;;;;6.10;0.65;;;;;;;;;;5041330;28;20048;-71
2024/03/23 13:38:32;;;;;;;2.75;0.38;;;;;;;;;;5041525;28;20049;-72
2024/03/23 13:41:01;;;;;;;3.85;0.43;;;;;;;;;;5041598;28;20045;-73
2024/03/23 13:43:31;;;;;;;2.85;0.70;;;;;;;;;;5041004;28;20534;-73
2024/03/23 13:45:59;;;;;;;5.63;0.90;;;;;;;;;;5041303;28;20053;-75
2024/03/23 13:48:29;;;;;;;3.50;0.77;;;;;;;;;;5040778;28;20561;-72
2024/03/23 13:51:04;;;;;;;5.22;0.60;;;;;;;;;;5041556;28;20084;-71
2024/03/23 13:53:38;;;;;;;5.07;0.73;;;;;;;;;;5025539;28;20051;-73
2024/03/23 13:56:07;;;;;;;5.72;0.80;;;;;;;;;;5042417;28;20393;-72
2024/03/23 13:58:37;;;;;;;3.17;0.77;;;;;;;;;;5026130;28;20072;-77
2024/03/23 14:01:07;;;;;;;4.05;0.60;;;;;;;;;;5025300;28;20423;-72
2024/03/23 14:03:35;;;;;;;2.47;0.77;;;;;;;;;;5041311;28;20056;-74
2024/03/23 14:06:03;;;;;;;7.85;1.73;;;;;;;;;;5042375;28;20053;-73
2024/03/23 14:08:34;;;;;;;5.13;0.65;;;;;;;;;;5040617;28;20130;-73
2024/03/23 14:11:04;;;;;;;7.03;0.60;;;;;;;;;;5040895;28;20045;-74
2024/03/23 14:13:32;;;;;;;6.43;0.90;;;;;;;;;;5041269;28;20045;-79
2024/03/23 14:16:01;;;;;;;2.28;1.13;;;;;;;;;;5041254;28;20048;-74
2024/03/23 14:18:30;;;;;;;3.55;0.80;;;;;;;;;;5043435;28;20045;-73
2024/03/23 14:20:59;;;;;;;;;;;;;;;;;;5043756;28;20049;-73
2024/03/23 14:23:32;;;;;;;4.82;0.73;;;;;;;;;;5042316;28;20383;-73
2024/03/23 14:26:01;;;;;;;4.50;0.47;;;;;;;;;;5043190;28;20045;-74
2024/03/23 14:28:29;;;;;;;3.58;0.73;;;;;;;;;;5042758;28;20503;-74
2024/03/23 14:30:58;;;;;;;4.55;0.43;;;;;;;;;;5026398;28;20049;-74
2024/03/23 14:33:27;;;;;;;3.17;0.88;;;;;;;;;;5042537;28;20067;-73
2024/03/23 14:35:59;;;;;;;3.10;0.70;;;;;;;;;;5043041;28;20404;-73
2024/03/23 14:38:28;;;;;;;3.92;0.60;;;;;;;;;;5042040;28;20049;-73
2024/03/23 14:41:02;;;;;;;2.72;0.45;;;;;;;;;;5043160;28;20063;-74
2024/03/23 14:43:32;;;;;;;7.45;0.73;;;;;;;;;;5027195;28;20064;-75
2024/03/23 14:46:07;;;;;;;2.67;0.70;;;;;;;;;;5043043;28;20060;-73
2024/03/23 14:48:36;;;;;;;2.45;0.50;;;;;;;;;;5042923;28;20396;-73
2024/03/23 14:51:06;;;;;;;4.75;0.52;;;;;;;;;;5042696;28;20526;-73
2024/03/23 14:53:37;;;;;;;1.35;0.32;;;;;;;;;;5042544;28;20036;-73
2024/03/23 14:56:07;;;;;;;3.65;0.80;;;;;;;;;;5042737;28;20046;-73
2024/03/23 14:58:35;;;;;;;5.45;0.70;;;;;;;;;;5042968;28;20409;-75
2024/03/23 15:01:11;;;;;;;3.33;0.50;;;;;;;;;;5026388;28;20059;-73
2024/03/23 15:03:42;;;;;;;2.67;0.52;;;;;;;;;;5042539;28;20049;-75
2024/03/23 15:06:12;;;;;;;4.20;0.70;;;;;;;;;;5042578;28;20072;-73
2024/03/23 15:08:40;;;;;;;2.58;0.60;;;;;;;;;;5042737;28;20045;-73
2024/03/23 15:11:09;;;;;;;3.83;0.43;;;;;;;;;;5042485;28;20053;-73
2024/03/23 15:13:38;;;;;;;1.98;0.35;;;;;;;;;;5041981;28;20044;-73
2024/03/23 15:16:07;;;;;;;1.17;0.30;;;;;;;;;;5042292;28;20056;-74